sensor_id;sensor_type;location;lat;lon;timestamp;P1;durP1;ratioP1;P2;durP2;ratioP2
43311;SDS011;30041;48.300;16.352;2023-11-21T00:00:39;6.70;;;1.23;;
43311;SDS011;30041;48.300;16.352;2023-11-21T00:03:04;5.57;;;1.23;;
43311;SDS011;30041;48.300;16.352;2023-11-21T00:05:29;5.22;;;1.50;;
43311;SDS011;30041;48.300;16.352;2023-11-21T00:07:55;5.10;;;1.30;;
43311;SDS011;30041;48.300;16.352;2023-11-21T00:10:20;4.90;;;1.50;;
43311;SDS011;30041;48.300;16.352;2023-11-21T00:12:46;5.15;;;1.30;;
43311;SDS011;30041;48.300;16.352;2023-11-21T00:15:11;3.88;;;1.23;;
43311;SDS011;30041;48.300;16.352;2023-11-21T00:17:39;3.92;;;1.30;;
43311;SDS011;30041;48.300;16.352;2023-11-21T00:20:05;4.38;;;1.20;;
43311;SDS011;30041;48.300;16.352;2023-11-21T00:22:32;4.07;;;1.10;;
43311;SDS011;30041;48.300;16.352;2023-11-21T00:24:59;4.90;;;1.63;;
43311;SDS011;30041;48.300;16.352;2023-11-21T00:27:24;3.55;;;1.33;;
43311;SDS011;30041;48.300;16.352;2023-11-21T00:29:50;5.28;;;1.40;;
43311;SDS011;30041;48.300;16.352;2023-11-21T00:32:15;3.25;;;0.90;;
43311;SDS011;30041;48.300;16.352;2023-11-21T00:34:41;4.50;;;1.10;;
43311;SDS011;30041;48.300;16.352;2023-11-21T00:37:06;4.05;;;1.00;;
43311;SDS011;30041;48.300;16.352;2023-11-21T00:39:31;2.42;;;1.08;;
43311;SDS011;30041;48.300;16.352;2023-11-21T00:41:57;2.30;;;1.13;;
43311;SDS011;30041;48.300;16.352;2023-11-21T00:44:22;2.92;;;1.30;;
43311;SDS011;30041;48.300;16.352;2023-11-21T00:46:47;4.00;;;1.15;;
43311;SDS011;30041;48.300;16.352;2023-11-21T00:49:13;4.30;;;1.33;;
43311;SDS011;30041;48.300;16.352;2023-11-21T00:51:38;4.68;;;1.10;;
43311;SDS011;30041;48.300;16.352;2023-11-21T00:54:04;4.28;;;1.20;;
43311;SDS011;30041;48.300;16.352;2023-11-21T00:56:29;2.35;;;0.88;;
43311;SDS011;30041;48.300;16.352;2023-11-21T00:58:55;2.25;;;1.10;;
43311;SDS011;30041;48.300;16.352;2023-11-21T01:01:20;3.60;;;0.90;;
43311;SDS011;30041;48.300;16.352;2023-11-21T01:03:46;2.20;;;1.00;;
43311;SDS011;30041;48.300;16.352;2023-11-21T01:06:12;3.90;;;1.20;;
43311;SDS011;30041;48.300;16.352;2023-11-21T01:08:37;3.33;;;1.13;;
43311;SDS011;30041;48.300;16.352;2023-11-21T01:11:03;4.38;;;1.08;;
43311;SDS011;30041;48.300;16.352;2023-11-21T01:13:28;3.60;;;1.00;;
43311;SDS011;30041;48.300;16.352;2023-11-21T01:15:54;2.28;;;0.90;;
43311;SDS011;30041;48.300;16.352;2023-11-21T01:18:20;1.90;;;0.90;;
43311;SDS011;30041;48.300;16.352;2023-11-21T01:20:45;3.33;;;1.23;;
43311;SDS011;30041;48.300;16.352;2023-11-21T01:23:11;2.70;;;1.00;;
43311;SDS011;30041;48.300;16.352;2023-11-21T01:25:36;3.53;;;1.10;;
43311;SDS011;30041;48.300;16.352;2023-11-21T01:28:01;2.95;;;1.10;;
43311;SDS011;30041;48.300;16.352;2023-11-21T01:30:27;2.42;;;0.90;;
43311;SDS011;30041;48.300;16.352;2023-11-21T01:32:52;3.15;;;1.08;;
43311;SDS011;30041;48.300;16.352;2023-11-21T01:35:17;2.53;;;1.10;;
43311;SDS011;30041;48.300;16.352;2023-11-21T01:37:43;3.22;;;1.30;;
43311;SDS011;30041;48.300;16.352;2023-11-21T01:40:08;4.57;;;0.73;;
43311;SDS011;30041;48.300;16.352;2023-11-21T01:42:34;2.13;;;0.90;;
43311;SDS011;30041;48.300;16.352;2023-11-21T01:44:59;3.75;;;1.17;;
43311;SDS011;30041;48.300;16.352;2023-11-21T01:47:25;1.80;;;1.02;;
43311;SDS011;30041;48.300;16.352;2023-11-21T01:49:50;4.13;;;1.35;;
43311;SDS011;30041;48.300;16.352;2023-11-21T01:52:16;2.92;;;1.10;;
43311;SDS011;30041;48.300;16.352;2023-11-21T01:54:41;1.95;;;0.93;;
43311;SDS011;30041;48.300;16.352;2023-11-21T01:57:07;3.95;;;1.15;;
43311;SDS011;30041;48.300;16.352;2023-11-21T01:59:36;2.53;;;0.93;;
43311;SDS011;30041;48.300;16.352;2023-11-21T02:02:03;3.10;;;0.90;;
43311;SDS011;30041;48.300;16.352;2023-11-21T02:04:29;2.00;;;0.88;;
43311;SDS011;30041;48.300;16.352;2023-11-21T02:06:54;1.50;;;0.73;;
43311;SDS011;30041;48.300;16.352;2023-11-21T02:09:29;1.98;;;0.70;;
43311;SDS011;30041;48.300;16.352;2023-11-21T02:11:54;3.50;;;0.98;;
43311;SDS011;30041;48.300;16.352;2023-11-21T02:14:21;2.67;;;0.98;;
43311;SDS011;30041;48.300;16.352;2023-11-21T02:16:46;2.05;;;0.80;;
43311;SDS011;30041;48.300;16.352;2023-11-21T02:19:13;2.05;;;0.88;;
43311;SDS011;30041;48.300;16.352;2023-11-21T02:21:43;2.53;;;1.00;;
43311;SDS011;30041;48.300;16.352;2023-11-21T02:24:08;1.67;;;0.80;;
43311;SDS011;30041;48.300;16.352;2023-11-21T02:26:34;3.35;;;0.80;;
43311;SDS011;30041;48.300;16.352;2023-11-21T02:28:59;1.77;;;0.80;;
43311;SDS011;30041;48.300;16.352;2023-11-21T02:31:25;1.55;;;0.70;;
43311;SDS011;30041;48.300;16.352;2023-11-21T02:33:50;2.15;;;0.90;;
43311;SDS011;30041;48.300;16.352;2023-11-21T02:36:15;2.38;;;1.05;;
43311;SDS011;30041;48.300;16.352;2023-11-21T02:38:41;3.78;;;1.00;;
43311;SDS011;30041;48.300;16.352;2023-11-21T02:41:06;2.35;;;0.90;;
43311;SDS011;30041;48.300;16.352;2023-11-21T02:43:32;2.33;;;1.02;;
43311;SDS011;30041;48.300;16.352;2023-11-21T02:45:57;2.25;;;0.85;;
43311;SDS011;30041;48.300;16.352;2023-11-21T02:48:23;1.90;;;0.90;;
43311;SDS011;30041;48.300;16.352;2023-11-21T02:50:48;2.92;;;1.10;;
43311;SDS011;30041;48.300;16.352;2023-11-21T02:53:13;1.95;;;0.80;;
43311;SDS011;30041;48.300;16.352;2023-11-21T02:55:39;2.17;;;1.02;;
43311;SDS011;30041;48.300;16.352;2023-11-21T02:58:04;1.67;;;0.80;;
43311;SDS011;30041;48.300;16.352;2023-11-21T03:00:30;2.67;;;0.88;;
43311;SDS011;30041;48.300;16.352;2023-11-21T03:02:55;2.90;;;1.00;;
43311;SDS011;30041;48.300;16.352;2023-11-21T03:05:21;1.58;;;0.73;;
43311;SDS011;30041;48.300;16.352;2023-11-21T03:07:47;1.77;;;0.85;;
43311;SDS011;30041;48.300;16.352;2023-11-21T03:10:12;1.98;;;0.90;;
43311;SDS011;30041;48.300;16.352;2023-11-21T03:12:38;2.20;;;0.77;;
43311;SDS011;30041;48.300;16.352;2023-11-21T03:15:07;2.55;;;0.88;;
43311;SDS011;30041;48.300;16.352;2023-11-21T03:17:33;1.65;;;0.90;;
43311;SDS011;30041;48.300;16.352;2023-11-21T03:19:58;2.35;;;0.90;;
43311;SDS011;30041;48.300;16.352;2023-11-21T03:22:24;2.25;;;0.77;;
43311;SDS011;30041;48.300;16.352;2023-11-21T03:24:50;1.90;;;1.00;;
43311;SDS011;30041;48.300;16.352;2023-11-21T03:27:15;2.67;;;0.80;;
43311;SDS011;30041;48.300;16.352;2023-11-21T03:29:41;1.73;;;0.75;;
43311;SDS011;30041;48.300;16.352;2023-11-21T03:32:06;1.38;;;0.70;;
43311;SDS011;30041;48.300;16.352;2023-11-21T03:34:35;2.53;;;0.82;;
43311;SDS011;30041;48.300;16.352;2023-11-21T03:37:00;1.58;;;0.80;;
43311;SDS011;30041;48.300;16.352;2023-11-21T03:39:26;1.45;;;0.80;;
43311;SDS011;30041;48.300;16.352;2023-11-21T03:41:51;1.60;;;0.80;;
43311;SDS011;30041;48.300;16.352;2023-11-21T03:44:17;1.27;;;0.70;;
43311;SDS011;30041;48.300;16.352;2023-11-21T03:46:42;1.58;;;0.70;;
43311;SDS011;30041;48.300;16.352;2023-11-21T03:49:08;1.73;;;0.70;;
43311;SDS011;30041;48.300;16.352;2023-11-21T03:51:33;1.67;;;0.75;;
43311;SDS011;30041;48.300;16.352;2023-11-21T03:53:59;2.15;;;0.82;;
43311;SDS011;30041;48.300;16.352;2023-11-21T03:56:24;1.77;;;0.70;;
43311;SDS011;30041;48.300;16.352;2023-11-21T03:58:50;1.33;;;0.70;;
43311;SDS011;30041;48.300;16.352;2023-11-21T04:01:19;2.28;;;0.73;;
43311;SDS011;30041;48.300;16.352;2023-11-21T04:03:50;1.80;;;0.70;;
43311;SDS011;30041;48.300;16.352;2023-11-21T04:06:16;1.33;;;0.60;;
43311;SDS011;30041;48.300;16.352;2023-11-21T04:08:45;0.80;;;0.50;;
43311;SDS011;30041;48.300;16.352;2023-11-21T04:11:11;1.63;;;0.70;;
43311;SDS011;30041;48.300;16.352;2023-11-21T04:13:37;1.65;;;0.70;;
43311;SDS011;30041;48.300;16.352;2023-11-21T04:16:04;1.10;;;0.63;;
43311;SDS011;30041;48.300;16.352;2023-11-21T04:18:31;1.33;;;0.77;;
43311;SDS011;30041;48.300;16.352;2023-11-21T04:20:56;1.80;;;1.00;;
43311;SDS011;30041;48.300;16.352;2023-11-21T04:23:22;1.63;;;0.70;;
43311;SDS011;30041;48.300;16.352;2023-11-21T04:25:47;1.25;;;0.70;;
43311;SDS011;30041;48.300;16.352;2023-11-21T04:28:12;2.85;;;0.95;;
43311;SDS011;30041;48.300;16.352;2023-11-21T04:30:38;1.70;;;0.60;;
43311;SDS011;30041;48.300;16.352;2023-11-21T04:33:06;1.70;;;0.90;;
43311;SDS011;30041;48.300;16.352;2023-11-21T04:35:31;1.88;;;0.88;;
43311;SDS011;30041;48.300;16.352;2023-11-21T04:37:57;1.77;;;0.70;;
43311;SDS011;30041;48.300;16.352;2023-11-21T04:40:22;2.05;;;0.70;;
43311;SDS011;30041;48.300;16.352;2023-11-21T04:42:50;2.28;;;0.70;;
43311;SDS011;30041;48.300;16.352;2023-11-21T04:45:16;1.60;;;0.60;;
43311;SDS011;30041;48.300;16.352;2023-11-21T04:47:41;1.17;;;0.60;;
43311;SDS011;30041;48.300;16.352;2023-11-21T04:50:06;1.52;;;0.50;;
43311;SDS011;30041;48.300;16.352;2023-11-21T04:52:34;1.55;;;0.63;;
43311;SDS011;30041;48.300;16.352;2023-11-21T04:55:00;0.93;;;0.50;;
43311;SDS011;30041;48.300;16.352;2023-11-21T04:57:27;1.15;;;0.70;;
43311;SDS011;30041;48.300;16.352;2023-11-21T04:59:53;1.60;;;0.57;;
43311;SDS011;30041;48.300;16.352;2023-11-21T05:02:21;1.58;;;0.70;;
43311;SDS011;30041;48.300;16.352;2023-11-21T05:04:46;1.88;;;0.65;;
43311;SDS011;30041;48.300;16.352;2023-11-21T05:07:12;6.20;;;0.80;;
43311;SDS011;30041;48.300;16.352;2023-11-21T05:09:41;2.20;;;0.60;;
43311;SDS011;30041;48.300;16.352;2023-11-21T05:12:07;1.17;;;0.60;;
43311;SDS011;30041;48.300;16.352;2023-11-21T05:14:32;1.42;;;0.68;;
43311;SDS011;30041;48.300;16.352;2023-11-21T05:16:58;3.20;;;0.70;;
43311;SDS011;30041;48.300;16.352;2023-11-21T05:19:23;2.13;;;0.70;;
43311;SDS011;30041;48.300;16.352;2023-11-21T05:21:48;3.00;;;0.63;;
43311;SDS011;30041;48.300;16.352;2023-11-21T05:24:14;3.17;;;0.60;;
43311;SDS011;30041;48.300;16.352;2023-11-21T05:26:39;2.35;;;0.60;;
43311;SDS011;30041;48.300;16.352;2023-11-21T05:29:05;4.03;;;0.90;;
43311;SDS011;30041;48.300;16.352;2023-11-21T05:31:30;9.45;;;0.70;;
43311;SDS011;30041;48.300;16.352;2023-11-21T05:33:55;1.52;;;0.63;;
43311;SDS011;30041;48.300;16.352;2023-11-21T05:36:21;2.40;;;0.75;;
43311;SDS011;30041;48.300;16.352;2023-11-21T05:38:46;4.00;;;0.90;;
43311;SDS011;30041;48.300;16.352;2023-11-21T05:41:12;5.22;;;0.80;;
43311;SDS011;30041;48.300;16.352;2023-11-21T05:43:37;3.45;;;0.70;;
43311;SDS011;30041;48.300;16.352;2023-11-21T05:46:02;2.25;;;0.77;;
43311;SDS011;30041;48.300;16.352;2023-11-21T05:48:28;4.95;;;0.80;;
43311;SDS011;30041;48.300;16.352;2023-11-21T05:50:53;3.55;;;0.60;;
43311;SDS011;30041;48.300;16.352;2023-11-21T05:53:19;5.57;;;0.75;;
43311;SDS011;30041;48.300;16.352;2023-11-21T05:55:44;1.80;;;0.70;;
43311;SDS011;30041;48.300;16.352;2023-11-21T05:58:10;3.92;;;0.80;;
43311;SDS011;30041;48.300;16.352;2023-11-21T06:00:35;3.90;;;0.63;;
43311;SDS011;30041;48.300;16.352;2023-11-21T06:03:01;7.00;;;1.05;;
43311;SDS011;30041;48.300;16.352;2023-11-21T06:05:26;3.40;;;0.65;;
43311;SDS011;30041;48.300;16.352;2023-11-21T06:07:52;2.17;;;0.60;;
43311;SDS011;30041;48.300;16.352;2023-11-21T06:10:22;3.50;;;0.80;;
43311;SDS011;30041;48.300;16.352;2023-11-21T06:12:47;2.10;;;0.70;;
43311;SDS011;30041;48.300;16.352;2023-11-21T06:15:13;2.78;;;0.85;;
43311;SDS011;30041;48.300;16.352;2023-11-21T06:17:39;3.30;;;0.80;;
43311;SDS011;30041;48.300;16.352;2023-11-21T06:20:05;2.60;;;0.70;;
43311;SDS011;30041;48.300;16.352;2023-11-21T06:22:32;2.20;;;0.70;;
43311;SDS011;30041;48.300;16.352;2023-11-21T06:24:57;2.60;;;0.70;;
43311;SDS011;30041;48.300;16.352;2023-11-21T06:27:23;4.82;;;0.70;;
43311;SDS011;30041;48.300;16.352;2023-11-21T06:29:48;2.35;;;0.57;;
43311;SDS011;30041;48.300;16.352;2023-11-21T06:32:13;1.85;;;0.52;;
43311;SDS011;30041;48.300;16.352;2023-11-21T06:34:39;1.35;;;0.50;;
43311;SDS011;30041;48.300;16.352;2023-11-21T06:37:04;2.10;;;0.60;;
43311;SDS011;30041;48.300;16.352;2023-11-21T06:39:32;1.73;;;0.52;;
43311;SDS011;30041;48.300;16.352;2023-11-21T06:41:57;1.83;;;0.60;;
43311;SDS011;30041;48.300;16.352;2023-11-21T06:44:22;1.67;;;0.63;;
43311;SDS011;30041;48.300;16.352;2023-11-21T06:46:48;1.00;;;0.50;;
43311;SDS011;30041;48.300;16.352;2023-11-21T06:49:13;2.05;;;0.70;;
43311;SDS011;30041;48.300;16.352;2023-11-21T06:51:39;1.55;;;0.50;;
43311;SDS011;30041;48.300;16.352;2023-11-21T06:54:04;2.10;;;0.52;;
43311;SDS011;30041;48.300;16.352;2023-11-21T06:56:31;4.50;;;0.90;;
43311;SDS011;30041;48.300;16.352;2023-11-21T06:58:56;4.03;;;1.13;;
43311;SDS011;30041;48.300;16.352;2023-11-21T07:01:21;4.93;;;0.98;;
43311;SDS011;30041;48.300;16.352;2023-11-21T07:03:47;8.35;;;1.15;;
43311;SDS011;30041;48.300;16.352;2023-11-21T07:06:12;4.40;;;1.27;;
43311;SDS011;30041;48.300;16.352;2023-11-21T07:08:42;4.97;;;1.58;;
43311;SDS011;30041;48.300;16.352;2023-11-21T07:11:07;4.50;;;1.40;;
43311;SDS011;30041;48.300;16.352;2023-11-21T07:13:33;4.55;;;1.20;;
43311;SDS011;30041;48.300;16.352;2023-11-21T07:15:59;4.68;;;1.20;;
43311;SDS011;30041;48.300;16.352;2023-11-21T07:18:24;6.97;;;1.40;;
43311;SDS011;30041;48.300;16.352;2023-11-21T07:20:50;2.72;;;1.15;;
43311;SDS011;30041;48.300;16.352;2023-11-21T07:23:18;7.90;;;1.50;;
43311;SDS011;30041;48.300;16.352;2023-11-21T07:25:43;6.32;;;2.00;;
43311;SDS011;30041;48.300;16.352;2023-11-21T07:28:11;10.68;;;1.60;;
43311;SDS011;30041;48.300;16.352;2023-11-21T07:30:36;10.60;;;1.70;;
43311;SDS011;30041;48.300;16.352;2023-11-21T07:33:02;6.95;;;1.80;;
43311;SDS011;30041;48.300;16.352;2023-11-21T07:35:27;8.35;;;2.70;;
43311;SDS011;30041;48.300;16.352;2023-11-21T07:37:56;10.07;;;3.05;;
43311;SDS011;30041;48.300;16.352;2023-11-21T07:40:21;9.55;;;3.08;;
43311;SDS011;30041;48.300;16.352;2023-11-21T07:42:47;8.73;;;3.05;;
43311;SDS011;30041;48.300;16.352;2023-11-21T07:45:12;7.57;;;3.03;;
43311;SDS011;30041;48.300;16.352;2023-11-21T07:47:38;8.43;;;3.17;;
43311;SDS011;30041;48.300;16.352;2023-11-21T07:50:03;9.05;;;2.97;;
43311;SDS011;30041;48.300;16.352;2023-11-21T07:52:29;6.65;;;2.78;;
43311;SDS011;30041;48.300;16.352;2023-11-21T07:54:54;8.63;;;3.25;;
43311;SDS011;30041;48.300;16.352;2023-11-21T07:57:20;7.93;;;2.53;;
43311;SDS011;30041;48.300;16.352;2023-11-21T07:59:45;6.47;;;2.63;;
43311;SDS011;30041;48.300;16.352;2023-11-21T08:02:10;6.28;;;2.40;;
43311;SDS011;30041;48.300;16.352;2023-11-21T08:04:36;5.78;;;2.30;;
43311;SDS011;30041;48.300;16.352;2023-11-21T08:07:02;7.63;;;2.15;;
43311;SDS011;30041;48.300;16.352;2023-11-21T08:09:27;6.80;;;2.38;;
43311;SDS011;30041;48.300;16.352;2023-11-21T08:11:53;9.48;;;2.03;;
43311;SDS011;30041;48.300;16.352;2023-11-21T08:14:18;6.78;;;2.00;;
43311;SDS011;30041;48.300;16.352;2023-11-21T08:16:44;6.07;;;1.95;;
43311;SDS011;30041;48.300;16.352;2023-11-21T08:19:09;5.88;;;1.90;;
43311;SDS011;30041;48.300;16.352;2023-11-21T08:21:35;5.82;;;1.70;;
43311;SDS011;30041;48.300;16.352;2023-11-21T08:24:00;5.50;;;1.83;;
43311;SDS011;30041;48.300;16.352;2023-11-21T08:26:26;5.53;;;1.98;;
43311;SDS011;30041;48.300;16.352;2023-11-21T08:28:51;4.40;;;1.77;;
43311;SDS011;30041;48.300;16.352;2023-11-21T08:31:16;4.93;;;1.70;;
43311;SDS011;30041;48.300;16.352;2023-11-21T08:33:42;6.82;;;2.13;;
43311;SDS011;30041;48.300;16.352;2023-11-21T08:36:08;4.40;;;1.83;;
43311;SDS011;30041;48.300;16.352;2023-11-21T08:38:34;3.72;;;1.63;;
43311;SDS011;30041;48.300;16.352;2023-11-21T08:40:59;3.42;;;1.70;;
43311;SDS011;30041;48.300;16.352;2023-11-21T08:43:27;3.55;;;1.67;;
43311;SDS011;30041;48.300;16.352;2023-11-21T08:45:53;4.25;;;1.60;;
43311;SDS011;30041;48.300;16.352;2023-11-21T08:48:18;5.90;;;2.00;;
43311;SDS011;30041;48.300;16.352;2023-11-21T08:50:43;6.00;;;1.85;;
43311;SDS011;30041;48.300;16.352;2023-11-21T08:53:09;10.25;;;2.20;;
43311;SDS011;30041;48.300;16.352;2023-11-21T08:55:37;8.10;;;2.22;;
43311;SDS011;30041;48.300;16.352;2023-11-21T08:58:02;10.18;;;2.17;;
43311;SDS011;30041;48.300;16.352;2023-11-21T09:00:28;8.18;;;1.92;;
43311;SDS011;30041;48.300;16.352;2023-11-21T09:02:53;12.95;;;2.22;;
43311;SDS011;30041;48.300;16.352;2023-11-21T09:05:18;5.05;;;1.80;;
43311;SDS011;30041;48.300;16.352;2023-11-21T09:07:44;8.30;;;2.13;;
43311;SDS011;30041;48.300;16.352;2023-11-21T09:10:18;4.30;;;1.83;;
43311;SDS011;30041;48.300;16.352;2023-11-21T09:12:44;8.40;;;1.80;;
43311;SDS011;30041;48.300;16.352;2023-11-21T09:15:09;7.78;;;2.15;;
43311;SDS011;30041;48.300;16.352;2023-11-21T09:17:35;7.38;;;1.85;;
43311;SDS011;30041;48.300;16.352;2023-11-21T09:20:00;10.02;;;2.42;;
43311;SDS011;30041;48.300;16.352;2023-11-21T09:22:26;5.72;;;1.70;;
43311;SDS011;30041;48.300;16.352;2023-11-21T09:24:52;4.90;;;1.90;;
43311;SDS011;30041;48.300;16.352;2023-11-21T09:27:17;7.75;;;1.77;;
43311;SDS011;30041;48.300;16.352;2023-11-21T09:29:42;8.00;;;1.80;;
43311;SDS011;30041;48.300;16.352;2023-11-21T09:32:08;5.15;;;1.85;;
43311;SDS011;30041;48.300;16.352;2023-11-21T09:34:34;6.63;;;1.70;;
43311;SDS011;30041;48.300;16.352;2023-11-21T09:36:59;4.47;;;1.70;;
43311;SDS011;30041;48.300;16.352;2023-11-21T09:39:25;7.60;;;2.00;;
43311;SDS011;30041;48.300;16.352;2023-11-21T09:41:51;4.30;;;1.42;;
43311;SDS011;30041;48.300;16.352;2023-11-21T09:44:18;10.57;;;1.80;;
43311;SDS011;30041;48.300;16.352;2023-11-21T09:46:47;3.85;;;1.63;;
43311;SDS011;30041;48.300;16.352;2023-11-21T09:49:13;7.68;;;1.70;;
43311;SDS011;30041;48.300;16.352;2023-11-21T09:51:41;9.02;;;1.75;;
43311;SDS011;30041;48.300;16.352;2023-11-21T09:54:08;13.57;;;2.33;;
43311;SDS011;30041;48.300;16.352;2023-11-21T09:56:35;6.63;;;1.55;;
43311;SDS011;30041;48.300;16.352;2023-11-21T09:59:03;5.93;;;1.38;;
43311;SDS011;30041;48.300;16.352;2023-11-21T10:01:30;6.47;;;1.63;;
43311;SDS011;30041;48.300;16.352;2023-11-21T10:03:57;6.97;;;1.65;;
43311;SDS011;30041;48.300;16.352;2023-11-21T10:06:22;4.75;;;1.35;;
43311;SDS011;30041;48.300;16.352;2023-11-21T10:08:51;6.88;;;1.65;;
43311;SDS011;30041;48.300;16.352;2023-11-21T10:11:17;6.60;;;1.70;;
43311;SDS011;30041;48.300;16.352;2023-11-21T10:13:43;4.78;;;1.45;;
43311;SDS011;30041;48.300;16.352;2023-11-21T10:16:11;4.28;;;1.48;;
43311;SDS011;30041;48.300;16.352;2023-11-21T10:18:41;5.78;;;1.70;;
43311;SDS011;30041;48.300;16.352;2023-11-21T10:21:07;7.65;;;1.75;;
43311;SDS011;30041;48.300;16.352;2023-11-21T10:23:33;6.45;;;1.80;;
43311;SDS011;30041;48.300;16.352;2023-11-21T10:25:58;7.40;;;1.85;;
43311;SDS011;30041;48.300;16.352;2023-11-21T10:28:29;7.05;;;1.70;;
43311;SDS011;30041;48.300;16.352;2023-11-21T10:30:54;5.60;;;1.63;;
43311;SDS011;30041;48.300;16.352;2023-11-21T10:33:26;10.27;;;1.70;;
43311;SDS011;30041;48.300;16.352;2023-11-21T10:35:52;7.45;;;1.77;;
43311;SDS011;30041;48.300;16.352;2023-11-21T10:38:18;5.80;;;1.60;;
43311;SDS011;30041;48.300;16.352;2023-11-21T10:40:44;9.68;;;1.98;;
43311;SDS011;30041;48.300;16.352;2023-11-21T10:43:10;13.60;;;1.65;;
43311;SDS011;30041;48.300;16.352;2023-11-21T10:45:39;15.18;;;3.90;;
43311;SDS011;30041;48.300;16.352;2023-11-21T10:48:05;8.77;;;3.30;;
43311;SDS011;30041;48.300;16.352;2023-11-21T10:50:32;5.65;;;2.70;;
43311;SDS011;30041;48.300;16.352;2023-11-21T10:52:58;5.13;;;2.53;;
43311;SDS011;30041;48.300;16.352;2023-11-21T10:55:24;9.55;;;2.60;;
43311;SDS011;30041;48.300;16.352;2023-11-21T10:57:50;7.13;;;2.13;;
43311;SDS011;30041;48.300;16.352;2023-11-21T11:00:18;6.63;;;1.98;;
43311;SDS011;30041;48.300;16.352;2023-11-21T11:02:44;4.95;;;1.80;;
43311;SDS011;30041;48.300;16.352;2023-11-21T11:05:11;7.18;;;1.63;;
43311;SDS011;30041;48.300;16.352;2023-11-21T11:07:37;9.18;;;2.05;;
43311;SDS011;30041;48.300;16.352;2023-11-21T11:10:08;5.07;;;1.90;;
43311;SDS011;30041;48.300;16.352;2023-11-21T11:12:34;6.88;;;1.65;;
43311;SDS011;30041;48.300;16.352;2023-11-21T11:15:00;6.68;;;1.88;;
43311;SDS011;30041;48.300;16.352;2023-11-21T11:17:26;4.57;;;1.92;;
43311;SDS011;30041;48.300;16.352;2023-11-21T11:19:52;5.38;;;1.75;;
43311;SDS011;30041;48.300;16.352;2023-11-21T11:22:28;4.10;;;1.60;;
43311;SDS011;30041;48.300;16.352;2023-11-21T11:28:17;3.85;;;1.67;;
43311;SDS011;30041;48.300;16.352;2023-11-21T11:36:15;4.22;;;1.65;;
43311;SDS011;30041;48.300;16.352;2023-11-21T11:38:47;4.22;;;1.83;;
43311;SDS011;30041;48.300;16.352;2023-11-21T11:41:12;3.67;;;1.48;;
43311;SDS011;30041;48.300;16.352;2023-11-21T11:43:38;3.22;;;1.50;;
43311;SDS011;30041;48.300;16.352;2023-11-21T11:46:03;3.38;;;1.40;;
43311;SDS011;30041;48.300;16.352;2023-11-21T11:48:29;3.25;;;1.40;;
43311;SDS011;30041;48.300;16.352;2023-11-21T11:51:01;2.67;;;1.50;;
43311;SDS011;30041;48.300;16.352;2023-11-21T11:53:33;4.50;;;1.50;;
43311;SDS011;30041;48.300;16.352;2023-11-21T11:56:21;4.75;;;1.60;;
43311;SDS011;30041;48.300;16.352;2023-11-21T11:58:50;3.40;;;1.53;;
43311;SDS011;30041;48.300;16.352;2023-11-21T12:01:17;3.88;;;1.50;;
43311;SDS011;30041;48.300;16.352;2023-11-21T12:03:44;5.22;;;1.40;;
43311;SDS011;30041;48.300;16.352;2023-11-21T12:06:09;4.28;;;1.50;;
43311;SDS011;30041;48.300;16.352;2023-11-21T12:08:35;2.95;;;1.45;;
43311;SDS011;30041;48.300;16.352;2023-11-21T12:11:01;3.47;;;1.25;;
43311;SDS011;30041;48.300;16.352;2023-11-21T12:13:26;3.83;;;1.40;;
43311;SDS011;30041;48.300;16.352;2023-11-21T12:15:53;3.47;;;1.70;;
43311;SDS011;30041;48.300;16.352;2023-11-21T12:18:19;2.90;;;1.10;;
43311;SDS011;30041;48.300;16.352;2023-11-21T12:20:44;4.47;;;1.50;;
43311;SDS011;30041;48.300;16.352;2023-11-21T12:23:09;4.25;;;1.60;;
43311;SDS011;30041;48.300;16.352;2023-11-21T12:25:35;3.45;;;1.63;;
43311;SDS011;30041;48.300;16.352;2023-11-21T12:28:01;6.25;;;1.30;;
43311;SDS011;30041;48.300;16.352;2023-11-21T12:30:28;3.67;;;1.42;;
43311;SDS011;30041;48.300;16.352;2023-11-21T12:32:55;3.55;;;1.33;;
43311;SDS011;30041;48.300;16.352;2023-11-21T12:35:24;4.75;;;1.60;;
43311;SDS011;30041;48.300;16.352;2023-11-21T12:37:51;3.15;;;1.27;;
43311;SDS011;30041;48.300;16.352;2023-11-21T12:40:18;5.10;;;1.50;;
43311;SDS011;30041;48.300;16.352;2023-11-21T12:42:47;7.85;;;1.80;;
43311;SDS011;30041;48.300;16.352;2023-11-21T12:47:52;4.35;;;1.50;;
43311;SDS011;30041;48.300;16.352;2023-11-21T12:50:27;6.13;;;1.40;;
43311;SDS011;30041;48.300;16.352;2023-11-21T12:52:58;6.80;;;1.67;;
43311;SDS011;30041;48.300;16.352;2023-11-21T12:55:30;4.45;;;1.50;;
43311;SDS011;30041;48.300;16.352;2023-11-21T12:57:56;3.92;;;1.60;;
43311;SDS011;30041;48.300;16.352;2023-11-21T13:00:29;6.13;;;1.98;;
43311;SDS011;30041;48.300;16.352;2023-11-21T13:02:57;3.07;;;1.20;;
43311;SDS011;30041;48.300;16.352;2023-11-21T13:05:27;4.22;;;1.45;;
43311;SDS011;30041;48.300;16.352;2023-11-21T13:07:54;4.47;;;1.50;;
43311;SDS011;30041;48.300;16.352;2023-11-21T13:10:30;5.20;;;1.65;;
43311;SDS011;30041;48.300;16.352;2023-11-21T13:12:59;4.72;;;1.52;;
43311;SDS011;30041;48.300;16.352;2023-11-21T13:15:28;3.83;;;1.10;;
43311;SDS011;30041;48.300;16.352;2023-11-21T13:17:54;5.45;;;1.38;;
43311;SDS011;30041;48.300;16.352;2023-11-21T13:20:19;3.30;;;1.10;;
43311;SDS011;30041;48.300;16.352;2023-11-21T13:22:54;4.25;;;1.48;;
43311;SDS011;30041;48.300;16.352;2023-11-21T13:25:21;6.72;;;1.67;;
43311;SDS011;30041;48.300;16.352;2023-11-21T13:27:47;3.00;;;1.20;;
43311;SDS011;30041;48.300;16.352;2023-11-21T13:30:15;3.58;;;1.30;;
43311;SDS011;30041;48.300;16.352;2023-11-21T13:32:42;5.95;;;1.30;;
43311;SDS011;30041;48.300;16.352;2023-11-21T13:35:08;4.32;;;1.40;;
43311;SDS011;30041;48.300;16.352;2023-11-21T13:37:34;7.00;;;1.60;;
43311;SDS011;30041;48.300;16.352;2023-11-21T13:39:59;3.38;;;1.20;;
43311;SDS011;30041;48.300;16.352;2023-11-21T13:42:24;3.42;;;1.23;;
43311;SDS011;30041;48.300;16.352;2023-11-21T13:44:55;5.32;;;1.48;;
43311;SDS011;30041;48.300;16.352;2023-11-21T13:47:24;3.33;;;1.38;;
43311;SDS011;30041;48.300;16.352;2023-11-21T13:49:49;5.13;;;1.30;;
43311;SDS011;30041;48.300;16.352;2023-11-21T13:52:15;3.50;;;1.30;;
43311;SDS011;30041;48.300;16.352;2023-11-21T13:54:40;4.07;;;1.40;;
43311;SDS011;30041;48.300;16.352;2023-11-21T13:57:06;9.15;;;1.30;;
43311;SDS011;30041;48.300;16.352;2023-11-21T13:59:31;7.50;;;1.80;;
43311;SDS011;30041;48.300;16.352;2023-11-21T14:01:57;6.68;;;1.52;;
43311;SDS011;30041;48.300;16.352;2023-11-21T14:04:26;16.35;;;2.15;;
43311;SDS011;30041;48.300;16.352;2023-11-21T14:06:51;8.02;;;1.77;;
43311;SDS011;30041;48.300;16.352;2023-11-21T14:09:18;8.02;;;1.67;;
43311;SDS011;30041;48.300;16.352;2023-11-21T14:11:45;5.57;;;1.60;;
43311;SDS011;30041;48.300;16.352;2023-11-21T14:14:10;5.80;;;1.42;;
43311;SDS011;30041;48.300;16.352;2023-11-21T14:16:35;6.05;;;1.58;;
43311;SDS011;30041;48.300;16.352;2023-11-21T14:19:01;3.83;;;1.27;;
43311;SDS011;30041;48.300;16.352;2023-11-21T14:21:26;6.88;;;1.50;;
43311;SDS011;30041;48.300;16.352;2023-11-21T14:23:52;6.32;;;1.38;;
43311;SDS011;30041;48.300;16.352;2023-11-21T14:26:17;6.93;;;1.42;;
43311;SDS011;30041;48.300;16.352;2023-11-21T14:28:43;6.05;;;1.30;;
43311;SDS011;30041;48.300;16.352;2023-11-21T14:31:08;4.05;;;1.30;;
43311;SDS011;30041;48.300;16.352;2023-11-21T14:33:34;4.65;;;1.23;;
43311;SDS011;30041;48.300;16.352;2023-11-21T14:36:01;12.00;;;1.40;;
43311;SDS011;30041;48.300;16.352;2023-11-21T14:38:27;5.30;;;1.55;;